Historique des mesures à Cassis (13260), France
Quotidien Résumé Juin 25, 2017 Unités:  US    Métrique   Métrique/US
« Précédent (Jour)
Suivant (Jour) »
Quotidien Hebdomadaire Mensuel Annuel Période au choix
  Maximum: Minimum: Moyenne:
Température: 32 °F 74.5 °F 77.9 °F
Point de rosée: 32 °F 61.2 °F 63.3 °F
Humidité: Humidity % 44 % 59 %
Vitesse du vent: WindSpeedKMH mph 0.0 mph 12 mph
Rafales: WindSpeedGustKMH mph - -
Vent:- - WSW
Pression: 0 in 29.8 in -
Précipitations: 0 in    
Historical Graphs
 
 
Mesures pour : Juin 25, 2017
Heure Temperature Point de rosée Pression Vent Vitesse du vent Rafales Humidité Pluie (par heure) Conditions
32 °F 32 °F 0 in Calm     Humidity % 0 in SoftwareType W/m2
00:11 77.7 °F 67.3 °F 29.9 in Calm     70 % 0 in open2300-1.11 W/m2
01:10 77 °F 67.6 °F 29.8 in Calm     73 % 0 in open2300-1.11 W/m2
02:10 76.8 °F 68.4 °F 29.8 in Calm     75 % 0 in open2300-1.11 W/m2
03:10 75.7 °F 67.6 °F 29.8 in Calm   1.8 mph 76 % 0 in open2300-1.11 W/m2
04:10 75 °F 66.9 °F 29.8 in Calm     76 % 0 in open2300-1.11 W/m2
05:10 74.5 °F 67.3 °F 29.8 in Calm   4.0 mph 78 % 0 in open2300-1.11 W/m2
06:10 74.8 °F 67.6 °F 29.8 in North 6.4 mph 15.8 mph 78 % 0 in open2300-1.11 W/m2
07:10 75 °F 65.5 °F 29.8 in West 1.4 mph 6.4 mph 72 % 0 in open2300-1.11 W/m2
08:11 75 °F 65.8 °F 29.8 in SSE 1.8 mph 4.0 mph 73 % 0 in open2300-1.11 W/m2
09:10 76.3 °F 64.9 °F 29.8 in NW 30.2 mph 30.2 mph 68 % 0 in open2300-1.11 W/m2
10:11 81 °F 67.6 °F 29.8 in SSW 7.2 mph 7.2 mph 64 % 0 in open2300-1.11 W/m2
11:10 85.6 °F 64.9 °F 29.8 in North 18.3 mph 20.1 mph 50 % 0 in open2300-1.11 W/m2
12:10 87.1 °F 64.4 °F 29.8 in WNW 17.7 mph 21.2 mph 47 % 0 in open2300-1.11 W/m2
13:10 86.2 °F 61.7 °F 29.8 in NNE 9.3 mph 12.2 mph 44 % 0 in open2300-1.11 W/m2
14:10 86.7 °F 62.8 °F 29.8 in NNW 18.3 mph 29.1 mph 45 % 0 in open2300-1.11 W/m2
15:10 83.7 °F 63.7 °F 29.8 in NW 22.7 mph 29.9 mph 51 % 0 in open2300-1.11 W/m2
16:10 83.8 °F 62.8 °F 29.8 in NW 23.8 mph 34.9 mph 49 % 0 in open2300-1.11 W/m2
17:10 84.7 °F 63 °F 29.8 in NW 29.4 mph 29.4 mph 48 % 0 in open2300-1.11 W/m2
18:11 83.1 °F 62.6 °F 29.8 in WNW 28.2 mph 36.7 mph 50 % 0 in open2300-1.11 W/m2
19:10 82.6 °F 62.1 °F 29.8 in WNW 20.9 mph 32.0 mph 50 % 0 in open2300-1.11 W/m2
20:10 80.4 °F 61.7 °F 29.8 in NW 23.3 mph 41.4 mph 53 % 0 in open2300-1.11 W/m2
21:11 78.4 °F 62.4 °F 29.8 in NNW 13.0 mph 15.8 mph 58 % 0 in open2300-1.11 W/m2
22:10 78.1 °F 61.2 °F 29.8 in NW 11.6 mph 16.6 mph 56 % 0 in open2300-1.11 W/m2
23:11 76.6 °F 62.2 °F 29.8 in WNW 15.4 mph 18.0 mph 61 % 0 in open2300-1.11 W/m2
Observations météo à CASSIS
WU-History script by Weather Underground - 1 mb